Airfield :
LOGIN :

Register | Disclaimer

   EN    FR    IT 

 










Legend :    VFR   Marginal VFR   IFR   Intensive IFR   Very Intensive IFR
Visi :
Ceiling :
>= 8 km
>= 3000ft
5 to 8 km
1000 to 3000 ft
1500m to 5 km
500 to 1000 ft
800 to 1500m
200 to 500 ft
< 800m
< 200 ft
Symbols :   Thunderstorms  Fog  Heavy snow  Heavy precipitations  Wind > 20 kt
SIGMETs :     Misc.  Thunderstorms  Icing  Turbulence  Mountain Waves  Volcanic Ashes






- Airport Elevation : 28 ft
- IATA code : SOZ


LFKS - Solenzara

CURRENT METAR :
  • 300430Z AUTO 33008KT 9999 BKN064 11/07 Q1012

EXPIRED METARs :
  • 300400Z AUTO 34009KT 9999 OVC056 11/07 Q1012
  • 300330Z AUTO 33008KT 9999 -RA FEW032 OVC050 11/08 Q1012
  • 300300Z AUTO 33009KT 9999 OVC033 11/08 Q1012
  • 300230Z AUTO 34010KT 9999 -RA BKN033 OVC044 11/08 Q1012
  • 300200Z AUTO 34010KT 9999 BKN034 BKN045 11/08 Q1012
  • 300130Z AUTO 34011KT 9999 BKN033 BKN040 BKN047 11/08 Q1011

TAF TAF LFKS
Valid from the 29 at 15:00 until the 30 at 15:00 UTC


291400Z 2915/3015 34010KT 9999 BKN025
TEMPO 2915/2924 4000 SHRA BKN010 BKN025TCU
BECMG 3004/3006 CAVOK



MET'MAP, your aeronautical weather chart ! - Copyright ORBIFLY December 2007 - Disclaimer

ORBIFLY MET'MAP TEAM :

Programming & Development : Alexandra Zaïnal
Original concept : Baudouin d'Aumeries
Technical & hardware support : Manuel Goepfert
Assistance : Marc-Olivier Méhu




SOURCES & CREDITS :

   NOAA